weather.gov     
National Weather Service

Terminal Aerodrome Forecast
NWS Homepage
This page is being discontinued on March 12, 2014.
The same data is available at this site. Please update your bookmarks.
Thank you, and we apologize for the inconvenience.
Please send an email to SR-SRH.Webmaster@noaa.gov with any concerns.


Current Version
Previous Version:    01  02  03  04  05  06  07  08  09  10  11  12  13  14  15  16  17  18  19  20  21  22  23  24  25  26  27  28  29  30  
   31  32  33  34  35  
[Printable]
896
FTUS43 KDMX 161129
TAFMCW
TAF
KMCW 161129Z 1612/1712 14020G28KT P6SM OVC090
     FM161700 17022G30KT P6SM VCSH SCT040 OVC080
     FM162200 16015G25KT 4SM -SHRA OVC040
     FM170100 29015G22KT 3SM -SHRA OVC025
     FM170400 30014KT P6SM OVC012=


896
FTUS43 KDMX 161129
TAFMCW
TAF
KMCW 161129Z 1612/1712 14020G28KT P6SM OVC090
     FM161700 17022G30KT P6SM VCSH SCT040 OVC080
     FM162200 16015G25KT 4SM -SHRA OVC040
     FM170100 29015G22KT 3SM -SHRA OVC025
     FM170400 30014KT P6SM OVC012=




U.S. Dept. of Commerce
NOAA National Weather Service
1325 East West Highway
Silver Spring, MD 20910
E-mail: w-nws.webmaster@noaa.gov
Page last modified: May 16, 2007
NATIONAL WEATHER SERVICE: for Safety, for Work, for Fun - FOR LIFE